Axion Estin — SW5988 — position and weather

sailwx.info

Track history (hours):
 
Tides and Currents Weather Stations Pressure Air Temp Water Temp Dewpoint Dewpoint Depression Visibility Wind Speed Wind Dir Waves Ship Positions

Axion Estin

Last reported at 2018-Feb-19 11:34 UTC. Time now 2018-Feb-19 16:27 UTC.
Position N 40°17' E 024°04'.

Length 48 m; draft 1.6 m.

Type: Ship. MMSI: 237025200.

Date/timePositionNaut miles runAvg speedWind from/ knotsBaromVisibWave heightAir tempDewpointWater temp
2018-Feb-19 11:34N 40°17' E 024°04'1 9.1
2018-Feb-19 11:27N 40°17' E 024°05'4 6.0
2018-Feb-19 10:42N 40°16' E 024°10'1 6.7
2018-Feb-19 10:30N 40°15' E 024°11'1 2.0
2018-Feb-19 09:49N 40°13' E 024°13'2 6.3
2018-Feb-19 09:29N 40°15' E 024°11'2 4.5
2018-Feb-19 08:59N 40°17' E 024°09'3 5.3
2018-Feb-19 08:30N 40°17' E 024°06'2 0.1
2018-Feb-18 11:49N 40°17' E 024°03'3 8.7
2018-Feb-18 11:30N 40°17' E 024°06'3 4.6
2018-Feb-18 10:47N 40°16' E 024°10'2 6.4
2018-Feb-18 10:30N 40°14' E 024°12'1 1.5
2018-Feb-18 09:46N 40°13' E 024°13'2 6.4
2018-Feb-18 09:30N 40°15' E 024°11'3 4.5
2018-Feb-18 08:51N 40°17' E 024°09'3 6.9
2018-Feb-18 08:24N 40°17' E 024°05'1 0.1
2018-Feb-17 11:56N 40°17' E 024°03'7 5.5
2018-Feb-17 10:44N 40°15' E 024°11'1 4.8
2018-Feb-17 10:30N 40°14' E 024°12'1 1.2
2018-Feb-17 09:53N 40°13' E 024°13'2 5.4
2018-Feb-17 09:25N 40°15' E 024°11'2 4.0
2018-Feb-17 08:54N 40°17' E 024°09'5 7.2
2018-Feb-17 08:15N 40°17' E 024°03'8 0.4
2018-Feb-16 10:45N 40°14' E 024°12'0 0.4
2018-Feb-16 09:53N 40°14' E 024°12'9 0.4
2018-Feb-15 12:27N 40°18' E 024°02'4 8.7
2018-Feb-15 12:00N 40°17' E 024°07'5 4.4
2018-Feb-15 10:54N 40°14' E 024°12'0 0.3
2018-Feb-15 10:01N 40°14' E 024°12'9 0.2
2018-Feb-13 12:08N 40°18' E 024°01'1 8.8
2018-Feb-13 12:00N 40°17' E 024°03'4 7.5
2018-Feb-13 11:28N 40°17' E 024°08'4 5.1
2018-Feb-13 10:44N 40°15' E 024°11'1 1.5
2018-Feb-13 09:51N 40°14' E 024°13'2 5.5
2018-Feb-13 09:25N 40°15' E 024°11'2 4.7
2018-Feb-13 08:58N 40°17' E 024°09'3 6.5
2018-Feb-13 08:30N 40°17' E 024°05'1 0.0
2018-Feb-12 11:54N 40°17' E 024°04'6 5.2
2018-Feb-12 10:45N 40°15' E 024°11'1 4.7
2018-Feb-12 10:30N 40°14' E 024°12'1 0.9
2018-Feb-12 09:46N 40°14' E 024°12'2 6.5
2018-Feb-12 09:30N 40°15' E 024°11'3 5.2
2018-Feb-12 09:00N 40°17' E 024°09'3 5.9
2018-Feb-12 08:27N 40°17' E 024°05'5 0.2
2018-Feb-11 12:27N 40°19' E 023°59'4 8.5
2018-Feb-11 11:56N 40°17' E 024°04'4 5.9
2018-Feb-11 11:16N 40°17' E 024°09'1 5.6
2018-Feb-11 11:00N 40°16' E 024°10'2 4.9
2018-Feb-11 10:30N 40°14' E 024°12'0 0.4
2018-Feb-11 09:51N 40°14' E 024°13'2 6.0
2018-Feb-11 09:28N 40°15' E 024°11'2 5.0
2018-Feb-11 09:00N 40°17' E 024°08'3 5.7
2018-Feb-11 08:30N 40°17' E 024°05'4 8.7
2018-Feb-11 08:00N 40°19' E 023°60'4 2.8
2018-Feb-11 06:25N 40°22' E 023°55'4 0.2
2018-Feb-10 12:26N 40°19' E 023°59'4 8.7
2018-Feb-10 11:57N 40°17' E 024°04'3 7.5
2018-Feb-10 11:30N 40°17' E 024°08'3 4.7
2018-Feb-10 10:54N 40°15' E 024°11'2 1.8
2018-Feb-10 09:55N 40°14' E 024°12'2 5.0
2018-Feb-10 09:29N 40°15' E 024°11'2 4.7
2018-Feb-10 09:00N 40°17' E 024°08'3 6.6
2018-Feb-10 08:31N 40°17' E 024°04'4 8.4
2018-Feb-10 08:00N 40°19' E 023°59'  
Track history (hours):
 
Tides and Currents Weather Stations Pressure Air Temp Water Temp Dewpoint Dewpoint Depression Visibility Wind Speed Wind Dir Waves Ship Positions

Axion Estin

Last reported at 2018-Feb-19 11:34 UTC. Time now 2018-Feb-19 16:27 UTC.
Position N 40°17' E 024°04'.

Length 48 m; draft 1.6 m.

Type: Ship. MMSI: 237025200.

Date/timePositionNaut miles runAvg speedWind from/ knotsBaromVisibWave heightAir tempDewpointWater temp
2018-Feb-19 11:34N 40°17' E 024°04'1 9.1
2018-Feb-19 11:27N 40°17' E 024°05'4 6.0
2018-Feb-19 10:42N 40°16' E 024°10'1 6.7
2018-Feb-19 10:30N 40°15' E 024°11'1 2.0
2018-Feb-19 09:49N 40°13' E 024°13'2 6.3
2018-Feb-19 09:29N 40°15' E 024°11'2 4.5
2018-Feb-19 08:59N 40°17' E 024°09'3 5.3
2018-Feb-19 08:30N 40°17' E 024°06'2 0.1
2018-Feb-18 11:49N 40°17' E 024°03'3 8.7
2018-Feb-18 11:30N 40°17' E 024°06'3 4.6
2018-Feb-18 10:47N 40°16' E 024°10'2 6.4
2018-Feb-18 10:30N 40°14' E 024°12'1 1.5
2018-Feb-18 09:46N 40°13' E 024°13'2 6.4
2018-Feb-18 09:30N 40°15' E 024°11'3 4.5
2018-Feb-18 08:51N 40°17' E 024°09'3 6.9
2018-Feb-18 08:24N 40°17' E 024°05'1 0.1
2018-Feb-17 11:56N 40°17' E 024°03'7 5.5
2018-Feb-17 10:44N 40°15' E 024°11'1 4.8
2018-Feb-17 10:30N 40°14' E 024°12'1 1.2
2018-Feb-17 09:53N 40°13' E 024°13'2 5.4
2018-Feb-17 09:25N 40°15' E 024°11'2 4.0
2018-Feb-17 08:54N 40°17' E 024°09'5 7.2
2018-Feb-17 08:15N 40°17' E 024°03'8 0.4
2018-Feb-16 10:45N 40°14' E 024°12'0 0.4
2018-Feb-16 09:53N 40°14' E 024°12'9 0.4
2018-Feb-15 12:27N 40°18' E 024°02'4 8.7
2018-Feb-15 12:00N 40°17' E 024°07'5 4.4
2018-Feb-15 10:54N 40°14' E 024°12'0 0.3
2018-Feb-15 10:01N 40°14' E 024°12'9 0.2
2018-Feb-13 12:08N 40°18' E 024°01'1 8.8
2018-Feb-13 12:00N 40°17' E 024°03'4 7.5
2018-Feb-13 11:28N 40°17' E 024°08'4 5.1
2018-Feb-13 10:44N 40°15' E 024°11'1 1.5
2018-Feb-13 09:51N 40°14' E 024°13'2 5.5
2018-Feb-13 09:25N 40°15' E 024°11'2 4.7
2018-Feb-13 08:58N 40°17' E 024°09'3 6.5
2018-Feb-13 08:30N 40°17' E 024°05'1 0.0
2018-Feb-12 11:54N 40°17' E 024°04'6 5.2
2018-Feb-12 10:45N 40°15' E 024°11'1 4.7
2018-Feb-12 10:30N 40°14' E 024°12'1 0.9
2018-Feb-12 09:46N 40°14' E 024°12'2 6.5
2018-Feb-12 09:30N 40°15' E 024°11'3 5.2
2018-Feb-12 09:00N 40°17' E 024°09'3 5.9
2018-Feb-12 08:27N 40°17' E 024°05'5 0.2
2018-Feb-11 12:27N 40°19' E 023°59'4 8.5
2018-Feb-11 11:56N 40°17' E 024°04'4 5.9
2018-Feb-11 11:16N 40°17' E 024°09'1 5.6
2018-Feb-11 11:00N 40°16' E 024°10'2 4.9
2018-Feb-11 10:30N 40°14' E 024°12'0 0.4
2018-Feb-11 09:51N 40°14' E 024°13'2 6.0
2018-Feb-11 09:28N 40°15' E 024°11'2 5.0
2018-Feb-11 09:00N 40°17' E 024°08'3 5.7
2018-Feb-11 08:30N 40°17' E 024°05'4 8.7
2018-Feb-11 08:00N 40°19' E 023°60'4 2.8
2018-Feb-11 06:25N 40°22' E 023°55'4 0.2
2018-Feb-10 12:26N 40°19' E 023°59'4 8.7
2018-Feb-10 11:57N 40°17' E 024°04'3 7.5
2018-Feb-10 11:30N 40°17' E 024°08'3 4.7
2018-Feb-10 10:54N 40°15' E 024°11'2 1.8
2018-Feb-10 09:55N 40°14' E 024°12'2 5.0
2018-Feb-10 09:29N 40°15' E 024°11'2 4.7
2018-Feb-10 09:00N 40°17' E 024°08'3 6.6
2018-Feb-10 08:31N 40°17' E 024°04'4 8.4
2018-Feb-10 08:00N 40°19' E 023°59'  

Dump ship's entire track history